Time;durP1;ratioP1;P1;durP2;ratioP2;P2;SDS_P1;SDS_P2;PMS_P1;PMS_P2;Temp;Humidity;BMP_temperature;BMP_pressure;BME280_temperature;BME280_humidity;BME280_pressure;Samples;Min_cycle;Max_cycle;Signal;HPM_P1;HPM_P2
2021/10/31 00:03:45;;;;;;;1999.90;999.90;;;;;;;13.42;54.19;100398.25;15743799;28;20044;-60
2021/10/31 00:11:19;;;;;;;1999.90;999.90;;;;;;;13.45;54.63;100394.75;15743273;28;20048;-61
2021/10/31 00:18:53;;;;;;;1999.90;999.90;;;;;;;13.42;55.14;100401.06;15743147;28;20497;-61
2021/10/31 00:26:25;;;;;;;1999.90;999.90;;;;;;;13.52;55.14;100415.38;15746284;28;20044;-58
2021/10/31 00:33:59;;;;;;;1999.90;999.90;;;;;;;13.60;55.51;100410.75;15806058;28;20044;-57
2021/10/31 00:41:32;;;;;;;;;;;;;;;13.79;55.54;100426.88;15787790;28;20059;-59
2021/10/31 00:49:06;;;;;;;1999.90;999.90;;;;;;;13.66;55.96;100419.72;15805339;28;19920;-59
2021/10/31 00:56:39;;;;;;;1999.90;999.90;;;;;;;13.69;56.37;100417.00;15805731;28;20094;-59
2021/10/31 01:04:19;;;;;;;1999.90;999.90;;;;;;;13.89;56.32;100429.13;15805622;28;20048;-60
2021/10/31 01:12:09;;;;;;;1999.90;999.90;;;;;;;14.04;56.08;100430.28;15787642;28;20043;-61
2021/10/31 01:20:06;;;;;;;1999.90;999.90;;;;;;;14.29;55.55;100434.53;15804943;28;20073;-61
2021/10/31 01:27:51;;;;;;;1999.90;999.90;;;;;;;14.32;55.43;100445.00;15790891;28;20066;-59
2021/10/31 01:35:37;;;;;;;1999.90;999.90;;;;;;;14.31;55.70;100448.19;15740937;28;20045;-58
2021/10/31 01:43:19;;;;;;;1999.90;999.90;;;;;;;14.13;55.95;100448.56;15742228;28;20560;-58
2021/10/31 01:50:58;;;;;;;1999.90;999.90;;;;;;;14.14;56.07;100461.41;15742518;28;20066;-60
2021/10/31 01:58:35;;;;;;;1999.90;999.90;;;;;;;13.99;56.74;100478.28;15748795;28;20040;-60
2021/10/31 02:06:10;;;;;;;1999.90;999.90;;;;;;;13.65;57.88;100466.59;15814300;28;20036;-58
2021/10/31 02:13:46;;;;;;;1999.90;999.90;;;;;;;13.38;58.50;100479.44;15813690;28;20071;-60
2021/10/31 02:21:26;;;;;;;1999.90;999.90;;;;;;;13.17;59.51;100485.22;15794342;28;20091;-60
2021/10/31 02:29:06;;;;;;;1999.90;999.90;;;;;;;12.92;60.14;100484.50;15816175;28;20059;-60
2021/10/31 02:36:38;;;;;;;1999.90;999.90;;;;;;;13.01;59.68;100489.94;15801285;28;20496;-61
2021/10/31 02:44:12;;;;;;;1999.90;999.90;;;;;;;12.96;60.21;100490.19;15799118;28;20051;-58
2021/10/31 02:51:52;;;;;;;1999.90;999.90;;;;;;;12.82;60.82;100495.34;15816411;28;20418;-60
2021/10/31 02:59:39;;;;;;;1999.90;999.90;;;;;;;12.74;61.44;100485.94;15818399;28;20043;-60
2021/10/31 03:07:13;;;;;;;1999.90;999.90;;;;;;;13.05;61.06;100498.47;15815438;28;20044;-60
2021/10/31 03:14:48;;;;;;;1999.90;999.90;;;;;;;12.92;61.75;100494.88;15796981;28;20044;-61
2021/10/31 03:22:21;;;;;;;1999.90;999.90;;;;;;;12.91;62.39;100502.44;15827119;28;20052;-62
2021/10/31 03:29:55;;;;;;;1999.90;999.90;;;;;;;13.10;62.75;100501.00;15813582;28;20064;-61
2021/10/31 03:37:27;;;;;;;1999.90;999.90;;;;;;;13.36;62.38;100514.63;15786711;28;20516;-61
2021/10/31 03:45:01;;;;;;;1999.90;999.90;;;;;;;13.54;62.35;100502.72;15772850;28;20070;-60
2021/10/31 03:52:34;;;;;;;1999.90;999.90;;;;;;;13.71;62.22;100521.19;15751648;28;20120;-62
2021/10/31 04:00:11;;;;;;;1999.90;999.90;;;;;;;13.59;62.96;100532.50;15752337;28;20079;-61
2021/10/31 04:07:43;;;;;;;1999.90;999.90;;;;;;;13.70;62.61;100530.78;15749914;28;20048;-62
2021/10/31 04:15:18;;;;;;;1999.90;999.90;;;;;;;13.89;62.22;100526.50;15748278;28;20611;-61
2021/10/31 04:22:51;;;;;;;1999.90;999.90;;;;;;;13.79;62.61;100539.84;15746829;28;20041;-61
2021/10/31 04:30:26;;;;;;;1999.90;999.90;;;;;;;13.66;63.12;100546.72;15788697;28;20058;-58
2021/10/31 04:38:07;;;;;;;1999.90;999.90;;;;;;;13.72;62.81;100550.88;15809323;28;20111;-58
2021/10/31 04:45:44;;;;;;;1999.90;999.90;;;;;;;13.71;63.13;100535.22;15802196;22;20150;-74
2021/10/31 04:53:16;;;;;;;1999.90;999.90;;;;;;;13.86;62.79;100556.91;15611062;28;20636;-72
2021/10/31 05:00:50;;;;;;;1999.90;999.90;;;;;;;13.93;62.68;100561.84;15680333;28;20135;-72
2021/10/31 05:08:23;;;;;;;1999.90;999.90;;;;;;;14.07;62.30;100553.03;15679869;28;20086;-73
2021/10/31 05:15:57;;;;;;;1999.90;999.90;;;;;;;14.02;62.66;100553.28;15679875;28;20060;-73
2021/10/31 05:23:30;;;;;;;1999.90;999.90;;;;;;;14.19;61.85;100552.94;15679462;28;20386;-73
2021/10/31 05:31:04;;;;;;;1999.90;999.90;;;;;;;14.13;61.96;100554.38;15637987;28;20139;-74
2021/10/31 05:38:53;;;;;;;1999.90;999.90;;;;;;;13.94;62.27;100563.50;15628305;28;20049;-74
2021/10/31 05:46:28;;;;;;;1999.90;999.90;;;;;;;13.83;62.74;100571.63;15628923;28;20053;-74
2021/10/31 05:54:02;;;;;;;1999.90;999.90;;;;;;;13.76;62.76;100565.00;15594069;28;20054;-73
2021/10/31 06:01:36;;;;;;;1999.90;999.90;;;;;;;13.85;62.66;100574.88;15625866;28;20196;-74
2021/10/31 06:09:08;;;;;;;1999.90;999.90;;;;;;;13.76;62.70;100579.03;15607213;28;20041;-73
2021/10/31 06:16:42;;;;;;;1999.90;999.90;;;;;;;13.55;63.43;100587.66;15610611;28;20076;-74
2021/10/31 06:24:15;;;;;;;1999.90;999.90;;;;;;;13.72;62.90;100597.72;15627527;28;20060;-73
2021/10/31 06:31:50;;;;;;;1999.90;999.90;;;;;;;13.52;63.63;100599.56;15655288;28;20557;-73
2021/10/31 06:39:22;;;;;;;1999.90;999.90;;;;;;;13.38;64.24;100602.75;15686480;28;20123;-74
2021/10/31 06:46:56;;;;;;;1999.90;999.90;;;;;;;13.81;63.16;100601.19;15684595;28;20390;-73
2021/10/31 06:54:29;;;;;;;1999.90;999.90;;;;;;;13.80;63.61;100611.59;15684662;28;20063;-74
2021/10/31 07:02:03;;;;;;;1999.90;999.90;;;;;;;14.01;63.27;100624.59;15666512;28;20223;-74
2021/10/31 07:09:36;;;;;;;1999.90;999.90;;;;;;;14.75;61.50;100644.63;15685471;28;20067;-73
2021/10/31 07:17:10;;;;;;;1999.90;999.90;;;;;;;15.46;60.20;100655.56;15651024;28;20045;-73
2021/10/31 07:24:45;;;;;;;1999.90;999.90;;;;;;;15.84;58.88;100637.94;15665115;28;20056;-73
2021/10/31 07:32:20;;;;;;;1999.90;999.90;;;;;;;16.09;58.82;100635.59;15665180;28;20041;-74
2021/10/31 07:39:56;;;;;;;1999.90;999.90;;;;;;;16.76;57.37;100628.78;15663491;28;20524;-72
2021/10/31 07:47:30;;;;;;;1999.90;999.90;;;;;;;17.14;56.50;100639.88;15659147;28;20088;-72
2021/10/31 07:55:07;;;;;;;1999.90;999.90;;;;;;;17.21;56.86;100645.63;15677947;28;20082;-73
2021/10/31 08:02:41;;;;;;;1999.90;999.90;;;;;;;17.86;55.52;100631.22;15670266;28;20139;-75
2021/10/31 08:10:13;;;;;;;1999.90;999.90;;;;;;;17.46;56.36;100617.75;15646545;28;20135;-75
2021/10/31 08:17:47;;;;;;;1999.90;999.90;;;;;;;17.33;56.18;100615.56;15694468;28;20048;-74
2021/10/31 08:25:21;;;;;;;1999.90;999.90;;;;;;;17.90;54.62;100631.25;15662053;28;20094;-74
2021/10/31 08:32:56;;;;;;;1999.90;999.90;;;;;;;18.87;52.37;100647.22;15605749;28;20065;-74
2021/10/31 08:40:28;;;;;;;1999.90;999.90;;;;;;;20.46;48.97;100654.97;15600681;28;20103;-75
2021/10/31 08:48:02;;;;;;;1999.90;999.90;;;;;;;21.03;48.23;100664.31;15599669;28;20041;-76
2021/10/31 08:55:36;;;;;;;1999.90;999.90;;;;;;;20.43;48.49;100658.59;15632023;28;20036;-75
2021/10/31 09:03:10;;;;;;;1999.90;999.90;;;;;;;20.97;48.00;100648.13;15619048;28;20128;-76
2021/10/31 09:10:43;;;;;;;1999.90;999.90;;;;;;;21.56;46.08;100631.41;15626443;28;20064;-76
2021/10/31 09:18:17;;;;;;;1999.90;999.90;;;;;;;19.96;48.89;100631.31;15679021;28;20433;-75
2021/10/31 09:25:49;;;;;;;1999.90;999.90;;;;;;;20.84;47.41;100612.84;15658969;28;20084;-76
2021/10/31 09:33:24;;;;;;;1999.90;999.90;;;;;;;22.23;44.28;100599.09;15659063;28;20047;-76
2021/10/31 09:40:57;;;;;;;1999.90;999.90;;;;;;;21.87;44.98;100587.06;15627955;28;20137;-75
2021/10/31 09:48:32;;;;;;;1999.90;999.90;;;;;;;21.58;44.73;100600.59;15619884;28;20041;-77
2021/10/31 09:56:05;;;;;;;1999.90;999.90;;;;;;;23.15;42.89;100594.72;15617814;28;20524;-76
2021/10/31 10:03:39;;;;;;;;;;;;;;;23.60;42.04;100594.63;15635882;28;20103;-77
2021/10/31 10:11:18;;;;;;;1999.90;999.90;;;;;;;24.47;40.74;100607.31;15617416;28;19936;-77
2021/10/31 10:18:53;;;;;;;1999.90;999.90;;;;;;;24.61;40.75;100594.88;15617343;28;20088;-76
2021/10/31 10:26:31;;;;;;;1999.90;999.90;;;;;;;25.16;39.39;100597.19;15612372;28;20047;-76
2021/10/31 10:34:05;;;;;;;1999.90;999.90;;;;;;;25.00;39.95;100577.06;15675740;23;20056;-62
2021/10/31 10:41:44;;;;;;;1999.90;999.90;;;;;;;25.86;38.98;100567.66;15633027;28;20077;-62
2021/10/31 10:49:20;;;;;;;1999.90;999.90;;;;;;;26.40;37.61;100550.09;15605714;28;20107;-62
2021/10/31 10:57:00;;;;;;;1999.90;999.90;;;;;;;27.90;35.53;100550.50;15627319;28;20139;-63
2021/10/31 11:04:35;;;;;;;1999.90;999.90;;;;;;;26.76;37.65;100538.56;15652994;28;20120;-63
2021/10/31 11:12:22;;;;;;;1999.90;999.90;;;;;;;27.70;35.95;100531.88;15651119;28;20688;-63
2021/10/31 11:19:56;;;;;;;1999.90;999.90;;;;;;;27.90;35.87;100521.81;15619074;28;20040;-62
2021/10/31 11:27:31;;;;;;;1999.90;999.90;;;;;;;26.21;39.06;100522.34;15610016;28;20041;-62
2021/10/31 11:35:08;;;;;;;1999.90;999.90;;;;;;;27.45;36.60;100499.03;15635800;28;20102;-62
2021/10/31 11:42:44;;;;;;;1999.90;999.90;;;;;;;28.75;34.88;100492.38;15615513;28;20069;-62
2021/10/31 11:50:20;;;;;;;1999.90;999.90;;;;;;;25.86;40.06;100473.34;15621405;28;20045;-62
2021/10/31 11:58:06;;;;;;;1999.90;999.90;;;;;;;27.29;37.50;100456.91;15634710;28;20041;-62
2021/10/31 12:05:44;;;;;;;1999.90;999.90;;;;;;;28.16;35.82;100456.69;15601190;28;20033;-62
2021/10/31 12:13:19;;;;;;;1999.90;999.90;;;;;;;31.39;31.42;100449.25;15584052;28;20523;-63
2021/10/31 12:20:56;;;;;;;1999.90;999.90;;;;;;;30.96;31.42;100446.25;15599994;28;20049;-62
2021/10/31 12:28:40;;;;;;;1999.90;999.90;;;;;;;28.03;35.63;100444.41;15599700;28;20037;-62
2021/10/31 12:36:28;;;;;;;1999.90;999.90;;;;;;;27.69;36.08;100422.16;15617036;28;20103;-61
2021/10/31 12:44:14;;;;;;;1999.90;999.90;;;;;;;27.20;36.47;100431.03;15631805;28;20072;-62
2021/10/31 12:52:00;;;;;;;1999.90;999.90;;;;;;;25.19;40.70;100422.16;15612451;28;20046;-60
2021/10/31 12:59:32;;;;;;;1999.90;999.90;;;;;;;23.51;44.01;100407.16;15634372;28;20459;-61
2021/10/31 13:07:06;;;;;;;1999.90;999.90;;;;;;;23.00;45.56;100394.06;15612328;28;20041;-61
2021/10/31 13:14:39;;;;;;;1999.90;999.90;;;;;;;24.30;43.08;100392.50;15615521;28;20047;-61
2021/10/31 13:22:18;;;;;;;1999.90;999.90;;;;;;;26.24;39.53;100387.84;15597834;28;20418;-61
2021/10/31 13:29:54;;;;;;;1999.90;999.90;;;;;;;27.22;37.88;100385.56;15597554;28;20049;-61
2021/10/31 13:37:28;;;;;;;1999.90;999.90;;;;;;;22.93;45.36;100369.38;15597010;28;20046;-61
2021/10/31 13:45:03;;;;;;;1999.90;999.90;;;;;;;21.60;48.94;100357.66;15614520;28;20405;-61
2021/10/31 13:52:40;;;;;;;1999.90;999.90;;;;;;;21.61;49.35;100367.78;15614296;28;20088;-61
2021/10/31 14:00:19;;;;;;;1999.90;999.90;;;;;;;21.19;50.67;100351.00;15624046;28;20065;-60
2021/10/31 14:07:58;;;;;;;1999.90;999.90;;;;;;;21.09;50.43;100329.97;15608375;28;20049;-61
2021/10/31 14:15:31;;;;;;;1999.90;999.90;;;;;;;19.83;54.00;100306.09;15607213;28;20068;-61
2021/10/31 14:23:07;;;;;;;1999.90;999.90;;;;;;;19.82;53.54;100300.84;15624509;28;20053;-62
2021/10/31 14:30:41;;;;;;;1999.90;999.90;;;;;;;19.69;54.59;100308.09;15623468;28;20312;-61
2021/10/31 14:38:24;;;;;;;1999.90;999.90;;;;;;;19.22;54.78;100304.44;15603598;28;20053;-60
2021/10/31 14:46:00;;;;;;;1999.90;999.90;;;;;;;19.07;54.81;100306.44;15621224;28;20087;-58
2021/10/31 14:53:33;;;;;;;1999.90;999.90;;;;;;;18.53;55.70;100299.75;15622914;28;20423;-61
2021/10/31 15:01:11;;;;;;;1999.90;999.90;;;;;;;18.46;54.98;100306.19;15620341;28;20049;-61
2021/10/31 15:08:45;;;;;;;1999.90;999.90;;;;;;;18.40;54.71;100310.59;15621157;28;20498;-61
2021/10/31 15:16:18;;;;;;;1999.90;999.90;;;;;;;18.15;55.00;100289.91;15588104;28;20056;-61
2021/10/31 15:23:53;;;;;;;1999.90;999.90;;;;;;;18.35;54.18;100284.75;15621647;28;20057;-61
2021/10/31 15:31:26;;;;;;;1999.90;999.90;;;;;;;18.03;54.91;100276.09;15603699;28;20076;-59
2021/10/31 15:39:01;;;;;;;1999.90;999.90;;;;;;;17.72;55.56;100267.03;15602823;28;20037;-60
2021/10/31 15:46:35;;;;;;;1999.90;999.90;;;;;;;17.71;55.23;100250.47;15602466;28;20049;-61
2021/10/31 15:54:09;;;;;;;1999.90;999.90;;;;;;;17.75;55.01;100240.84;15601917;28;20051;-61
2021/10/31 16:01:55;;;;;;;1999.90;999.90;;;;;;;17.68;54.75;100221.03;15600585;28;20054;-59
2021/10/31 16:09:30;;;;;;;1999.90;999.90;;;;;;;17.28;55.47;100214.28;15619568;28;20069;-60
2021/10/31 16:17:03;;;;;;;1999.90;999.90;;;;;;;17.18;55.62;100205.75;15617117;28;20395;-59
2021/10/31 16:24:38;;;;;;;1999.90;999.90;;;;;;;16.99;56.34;100195.53;15617737;28;20053;-60
2021/10/31 16:32:11;;;;;;;1999.90;999.90;;;;;;;17.05;55.99;100193.97;15616367;28;20418;-60
2021/10/31 16:39:44;;;;;;;1999.90;999.90;;;;;;;16.99;55.97;100185.06;15599518;28;20045;-58
2021/10/31 16:47:19;;;;;;;1999.90;999.90;;;;;;;16.72;56.75;100172.31;15616857;28;20381;-58
2021/10/31 16:54:55;;;;;;;1999.90;999.90;;;;;;;16.43;57.12;100168.38;15598544;28;20048;-59
2021/10/31 17:02:27;;;;;;;1999.90;999.90;;;;;;;16.14;58.19;100168.03;15615409;28;20441;-60
2021/10/31 17:10:13;;;;;;;1999.90;999.90;;;;;;;16.27;57.72;100165.81;15598346;28;20050;-60
2021/10/31 17:17:49;;;;;;;1999.90;999.90;;;;;;;16.00;57.67;100164.25;15583167;28;20414;-60
2021/10/31 17:25:28;;;;;;;1999.90;999.90;;;;;;;16.38;55.58;100151.84;15631973;28;20045;-61
2021/10/31 17:33:00;;;;;;;1999.90;999.90;;;;;;;16.66;54.34;100140.03;15624606;28;20053;-61
2021/10/31 17:40:35;;;;;;;1999.90;999.90;;;;;;;16.63;53.99;100150.06;15609848;28;20429;-61
2021/10/31 17:48:08;;;;;;;1999.90;999.90;;;;;;;16.65;53.83;100139.22;15626953;28;20410;-61
2021/10/31 17:55:44;;;;;;;1999.90;999.90;;;;;;;16.30;55.03;100130.44;15608245;28;20045;-61
2021/10/31 18:03:17;;;;;;;1999.90;999.90;;;;;;;16.16;55.57;100131.91;15608347;28;20060;-60
2021/10/31 18:10:51;;;;;;;1999.90;999.90;;;;;;;16.08;55.89;100115.31;15626282;28;20037;-61
2021/10/31 18:18:24;;;;;;;1999.90;999.90;;;;;;;16.41;54.80;100101.19;15626131;28;20062;-62
2021/10/31 18:25:59;;;;;;;1999.90;999.90;;;;;;;16.29;55.03;100098.66;15625018;28;20099;-60
2021/10/31 18:33:31;;;;;;;1999.90;999.90;;;;;;;16.35;54.42;100091.47;15624646;28;20053;-61
2021/10/31 18:41:05;;;;;;;1999.90;999.90;;;;;;;16.06;54.72;100073.50;15589966;28;20083;-60
2021/10/31 18:48:38;;;;;;;1999.90;999.90;;;;;;;16.24;53.50;100050.34;15621829;28;20494;-61
2021/10/31 18:56:13;;;;;;;1999.90;999.90;;;;;;;15.95;53.69;100057.69;15611419;28;20052;-61
2021/10/31 19:03:46;;;;;;;1999.90;999.90;;;;;;;15.92;53.61;100048.00;15610868;28;20663;-62
2021/10/31 19:11:20;;;;;;;1999.90;999.90;;;;;;;15.98;53.80;100042.84;15626678;28;20049;-58
2021/10/31 19:18:52;;;;;;;1999.90;999.90;;;;;;;15.95;53.65;100027.56;15631472;28;20037;-62
2021/10/31 19:26:26;;;;;;;1999.90;999.90;;;;;;;15.59;54.14;100009.44;15598957;28;20060;-64
2021/10/31 19:33:58;;;;;;;1999.90;999.90;;;;;;;15.46;54.76;100003.25;15629662;28;20038;-62
2021/10/31 19:41:32;;;;;;;1999.90;999.90;;;;;;;15.22;55.13;99998.97;15629608;28;20367;-65
2021/10/31 19:49:05;;;;;;;1999.90;999.90;;;;;;;15.51;54.48;99988.03;15620955;28;20407;-62
2021/10/31 19:56:42;;;;;;;1999.90;999.90;;;;;;;15.28;55.09;99982.56;15622442;28;20120;-62
2021/10/31 20:04:18;;;;;;;1999.90;999.90;;;;;;;15.05;55.70;99988.28;15590685;28;20049;-61
2021/10/31 20:11:52;;;;;;;1999.90;999.90;;;;;;;15.06;55.68;99978.66;15597967;28;20572;-60
2021/10/31 20:19:24;;;;;;;1999.90;999.90;;;;;;;15.04;55.82;99952.16;15713215;22;20049;-58
2021/10/31 20:27:01;;;;;;;1999.90;999.90;;;;;;;14.79;56.40;99937.75;15688314;28;20449;-59
2021/10/31 20:34:34;;;;;;;1999.90;999.90;;;;;;;14.75;56.57;99934.09;15654274;28;20036;-60
2021/10/31 20:42:11;;;;;;;1999.90;999.90;;;;;;;14.68;56.84;99921.56;15662683;28;20041;-56
2021/10/31 20:49:44;;;;;;;1999.90;999.90;;;;;;;14.45;57.49;99918.03;15665488;28;20446;-54
2021/10/31 20:57:19;;;;;;;1999.90;999.90;;;;;;;14.55;57.06;99910.94;15671245;28;20125;-57
2021/10/31 21:04:52;;;;;;;1999.90;999.90;;;;;;;14.00;58.80;99902.88;15665572;28;20174;-54
2021/10/31 21:12:33;;;;;;;1999.90;999.90;;;;;;;14.24;57.88;99879.19;15649789;28;20052;-58
2021/10/31 21:20:10;;;;;;;1999.90;999.90;;;;;;;13.81;59.01;99867.31;15633530;28;20053;-58
2021/10/31 21:27:44;;;;;;;1999.90;999.90;;;;;;;13.82;59.12;99873.72;15667681;28;20137;-54
2021/10/31 21:35:21;;;;;;;1999.90;999.90;;;;;;;13.80;59.01;99864.88;15672502;28;20119;-53
2021/10/31 21:42:55;;;;;;;1999.90;999.90;;;;;;;13.98;58.64;99859.56;15654108;28;20057;-60
2021/10/31 21:50:28;;;;;;;1999.90;999.90;;;;;;;14.11;58.16;99860.97;15653602;28;20188;-62
2021/10/31 21:58:02;;;;;;;1999.90;999.90;;;;;;;13.72;59.39;99838.72;15671752;28;20129;-59
2021/10/31 22:05:35;;;;;;;1999.90;999.90;;;;;;;13.90;58.98;99832.59;15652602;28;20048;-63
2021/10/31 22:13:11;;;;;;;1999.90;999.90;;;;;;;13.56;59.87;99844.47;15610369;28;20452;-57
2021/10/31 22:20:44;;;;;;;1999.90;999.90;;;;;;;13.56;59.81;99827.66;15664874;28;20498;-55
2021/10/31 22:28:18;;;;;;;1999.90;999.90;;;;;;;13.39;60.48;99818.94;15665397;28;20059;-57
2021/10/31 22:35:51;;;;;;;1999.90;999.90;;;;;;;12.97;61.83;99811.34;15683846;28;20041;-56
2021/10/31 22:43:27;;;;;;;1999.90;999.90;;;;;;;13.34;60.98;99814.47;15682521;28;20047;-52
2021/10/31 22:51:00;;;;;;;1999.90;999.90;;;;;;;12.98;61.60;99805.38;15648574;28;20044;-55
2021/10/31 22:58:35;;;;;;;1999.90;999.90;;;;;;;13.11;61.22;99783.59;15663813;28;20131;-59
2021/10/31 23:06:10;;;;;;;1999.90;999.90;;;;;;;12.03;64.50;99759.44;15661737;28;20071;-54
2021/10/31 23:13:47;;;;;;;1999.90;999.90;;;;;;;11.93;65.13;99746.84;15646725;28;20052;-54
2021/10/31 23:21:23;;;;;;;1999.90;999.90;;;;;;;11.96;65.60;99742.50;15660886;28;20041;-56
2021/10/31 23:28:57;;;;;;;1999.90;999.90;;;;;;;12.45;63.65;99741.94;15660100;28;20501;-51
2021/10/31 23:36:29;;;;;;;1999.90;999.90;;;;;;;12.17;64.75;99736.56;15660575;28;20049;-56
2021/10/31 23:44:03;;;;;;;1999.90;999.90;;;;;;;12.07;65.14;99705.22;15678177;28;20118;-55
2021/10/31 23:51:36;;;;;;;1999.90;999.90;;;;;;;11.81;66.00;99691.88;15677584;28;20456;-55
2021/10/31 23:59:10;;;;;;;1999.90;999.90;;;;;;;11.97;65.82;99699.38;15659427;28;20049;-56
